Time;durP1;ratioP1;P1;durP2;ratioP2;P2;SDS_P1;SDS_P2;PMS_P1;PMS_P2;Temp;Humidity;BMP_temperature;BMP_pressure;BME280_temperature;BME280_humidity;BME280_pressure;Samples;Min_cycle;Max_cycle;Signal;HPM_P1;HPM_P2
2023/10/19 00:02:08;;;;;;;10.60;8.87;;;9.70;99.90;;;;;;5056281;28;20166;-82
2023/10/19 00:04:37;;;;;;;11.60;8.50;;;9.70;99.90;;;;;;5056725;28;20204;-82
2023/10/19 00:07:06;;;;;;;11.67;8.70;;;9.70;99.90;;;;;;5038546;28;20213;-82
2023/10/19 00:09:37;;;;;;;12.07;8.80;;;9.70;99.90;;;;;;5038633;28;20169;-82
2023/10/19 00:12:03;;;;;;;9.90;8.20;;;9.70;99.90;;;;;;5038212;28;20176;-82
2023/10/19 00:14:29;;;;;;;10.50;8.17;;;9.70;99.90;;;;;;5038556;28;20313;-82
2023/10/19 00:17:00;;;;;;;9.20;7.87;;;9.70;99.90;;;;;;5038033;28;20317;-83
2023/10/19 00:19:27;;;;;;;10.33;8.00;;;9.70;99.90;;;;;;5038352;28;20234;-82
2023/10/19 00:22:01;;;;;;;8.43;7.10;;;9.80;99.90;;;;;;5037959;28;20268;-82
2023/10/19 00:24:27;;;;;;;7.63;6.43;;;9.80;99.90;;;;;;5056347;28;20185;-83
2023/10/19 00:26:54;;;;;;;7.83;6.17;;;9.80;99.90;;;;;;5038041;28;20284;-82
2023/10/19 00:29:30;;;;;;;9.53;6.63;;;9.90;99.90;;;;;;5037884;28;20220;-83
2023/10/19 00:31:59;;;;;;;9.77;7.80;;;9.90;99.90;;;;;;5055418;28;20167;-82
2023/10/19 00:34:28;;;;;;;7.47;6.20;;;10.00;99.90;;;;;;5037535;28;20174;-82
2023/10/19 00:36:55;;;;;;;7.77;5.93;;;10.00;99.90;;;;;;5055848;28;20189;-82
2023/10/19 00:39:22;;;;;;;9.93;7.57;;;10.00;99.90;;;;;;5056208;28;20181;-82
2023/10/19 00:41:48;;;;;;;10.83;7.77;;;10.00;99.90;;;;;;5055581;28;20185;-82
2023/10/19 00:44:28;;;;;;;11.23;7.53;;;10.00;99.90;;;;;;5055817;28;20231;-82
2023/10/19 00:47:03;;;;;;;10.20;8.07;;;10.00;99.90;;;;;;5037772;28;20225;-83
2023/10/19 00:49:31;;;;;;;10.03;7.67;;;10.00;99.90;;;;;;5037564;28;20161;-82
2023/10/19 00:52:11;;;;;;;8.90;7.37;;;10.00;99.90;;;;;;5037363;28;20178;-82
2023/10/19 00:57:10;;;;;;;10.63;7.93;;;10.10;99.90;;;;;;5055545;28;20196;-82
2023/10/19 00:59:43;;;;;;;10.20;8.47;;;10.00;99.90;;;;;;5037506;28;20216;-82
2023/10/19 01:02:28;;;;;;;10.70;8.27;;;10.00;99.90;;;;;;5037072;28;20184;-83
2023/10/19 01:04:59;;;;;;;9.63;8.37;;;10.00;99.90;;;;;;5027827;28;20201;-82
2023/10/19 01:07:29;;;;;;;10.60;7.97;;;10.00;99.90;;;;;;5038026;28;20677;-83
2023/10/19 01:10:05;;;;;;;10.03;7.87;;;10.00;99.90;;;;;;5055581;28;20169;-83
2023/10/19 01:15:29;;;;;;;8.97;7.87;;;10.00;99.90;;;;;;5055662;28;20185;-83
2023/10/19 01:17:52;;;;;;;9.37;7.33;;;10.00;99.90;;;;;;5054844;28;20189;-82
2023/10/19 01:28:19;;;;;;;8.03;7.03;;;10.10;99.90;;;;;;5035273;28;20221;-85
2023/10/19 01:30:45;;;;;;;7.40;6.60;;;10.10;99.90;;;;;;5033593;28;20182;-83
2023/10/19 01:33:21;;;;;;;7.40;6.37;;;10.10;99.90;;;;;;5034545;28;20174;-82
2023/10/19 01:38:32;;;;;;;7.60;6.37;;;10.00;99.90;;;;;;5035251;28;20177;-83
2023/10/19 01:41:05;;;;;;;9.10;7.00;;;10.00;99.90;;;;;;5034846;28;20262;-82
2023/10/19 01:43:31;;;;;;;7.43;6.63;;;10.00;99.90;;;;;;5033267;28;20186;-83
2023/10/19 01:46:05;;;;;;;8.20;6.93;;;10.00;99.90;;;;;;5032860;28;20206;-82
2023/10/19 01:48:34;;;;;;;9.97;7.23;;;10.00;99.90;;;;;;5034812;28;20642;-83
2023/10/19 01:51:04;;;;;;;9.47;7.30;;;9.90;99.90;;;;;;5016304;28;20178;-83
2023/10/19 01:53:35;;;;;;;8.17;6.37;;;9.90;99.90;;;;;;5034586;28;20170;-82
2023/10/19 01:56:00;;;;;;;7.57;6.47;;;9.90;99.90;;;;;;5034358;28;20278;-85
2023/10/19 01:58:26;;;;;;;8.87;6.90;;;10.00;99.90;;;;;;5016619;28;20273;-83
2023/10/19 02:00:55;;;;;;;7.47;6.33;;;10.00;99.90;;;;;;5016314;28;20202;-83
2023/10/19 02:03:24;;;;;;;6.67;5.97;;;9.90;99.90;;;;;;5033558;28;20194;-83
2023/10/19 02:06:09;;;;;;;8.67;6.30;;;10.00;99.90;;;;;;5041838;28;20779;-83
2023/10/19 02:08:38;;;;;;;7.07;5.63;;;10.00;99.90;;;;;;5053918;28;20173;-83
2023/10/19 02:11:17;;;;;;;7.90;6.30;;;10.00;99.90;;;;;;5035730;28;20219;-83
2023/10/19 02:13:46;;;;;;;6.83;5.83;;;10.10;99.90;;;;;;5053813;28;20154;-84
2023/10/19 02:16:16;;;;;;;6.77;6.03;;;10.10;99.90;;;;;;5053822;28;20553;-83
2023/10/19 02:18:45;;;;;;;7.17;5.50;;;10.10;99.90;;;;;;5035847;28;20174;-83
2023/10/19 02:21:14;;;;;;;5.20;4.30;;;10.20;99.90;;;;;;5035408;28;20553;-83
2023/10/19 02:23:41;;;;;;;5.13;4.17;;;10.30;99.90;;;;;;5035792;28;20574;-83
2023/10/19 02:26:08;;;;;;;5.43;4.20;;;10.40;99.90;;;;;;5053417;28;20251;-83
2023/10/19 02:28:38;;;;;;;4.63;4.13;;;10.40;99.90;;;;;;5053756;28;20296;-83
2023/10/19 02:31:14;;;;;;;5.10;4.60;;;10.50;99.90;;;;;;5035005;28;20256;-84
2023/10/19 02:33:40;;;;;;;4.67;4.17;;;10.60;99.90;;;;;;5053754;28;20154;-83
2023/10/19 02:36:12;;;;;;;3.87;3.40;;;10.70;99.90;;;;;;5053514;28;20227;-83
2023/10/19 02:38:43;;;;;;;3.90;3.50;;;10.70;99.90;;;;;;5053560;28;20593;-83
2023/10/19 02:41:09;;;;;;;3.50;3.20;;;10.90;99.90;;;;;;5034993;28;20176;-83
2023/10/19 02:43:36;;;;;;;4.40;3.20;;;11.00;99.90;;;;;;5035670;28;20269;-83
2023/10/19 02:46:03;;;;;;;3.63;2.80;;;11.10;99.90;;;;;;5053074;28;20276;-83
2023/10/19 02:48:29;;;;;;;3.70;3.23;;;11.10;99.90;;;;;;5035011;28;20642;-82
2023/10/19 02:50:54;;;;;;;3.23;2.93;;;11.10;99.90;;;;;;5034896;28;20227;-83
2023/10/19 02:53:20;;;;;;;3.33;2.93;;;11.20;99.90;;;;;;5034903;28;20169;-84
2023/10/19 02:55:45;;;;;;;3.57;3.27;;;11.20;99.90;;;;;;5052839;28;20204;-82
2023/10/19 02:58:11;;;;;;;3.30;3.00;;;11.20;99.90;;;;;;5052555;28;20227;-83
2023/10/19 03:00:37;;;;;;;3.40;3.10;;;11.20;99.90;;;;;;5053005;28;20216;-81
2023/10/19 03:03:06;;;;;;;3.50;3.20;;;11.20;99.90;;;;;;5034655;28;20673;-83
2023/10/19 03:05:34;;;;;;;3.83;3.20;;;11.20;99.90;;;;;;5052922;28;20595;-83
2023/10/19 03:08:05;;;;;;;4.17;3.40;;;11.10;99.90;;;;;;5035098;28;20197;-83
2023/10/19 03:10:41;;;;;;;3.70;3.30;;;11.10;99.90;;;;;;5034877;28;20170;-83
2023/10/19 03:13:08;;;;;;;3.73;3.40;;;11.10;99.90;;;;;;5052683;28;20158;-83
2023/10/19 03:15:33;;;;;;;4.17;3.77;;;11.10;99.90;;;;;;5035202;28;20193;-83
2023/10/19 03:18:01;;;;;;;4.20;3.60;;;11.10;99.90;;;;;;5035241;28;20223;-83
2023/10/19 03:20:28;;;;;;;4.37;3.97;;;11.10;99.90;;;;;;5034813;28;20195;-82
2023/10/19 03:22:58;;;;;;;4.33;3.80;;;11.00;99.90;;;;;;5052274;28;20173;-83
2023/10/19 03:28:16;;;;;;;4.57;4.03;;;11.00;99.90;;;;;;5052879;28;20180;-84
2023/10/19 03:30:42;;;;;;;4.30;3.90;;;11.00;99.90;;;;;;5052613;28;20157;-83
2023/10/19 03:33:08;;;;;;;4.20;3.80;;;11.00;99.90;;;;;;5034207;28;20181;-84
2023/10/19 03:35:37;;;;;;;4.17;3.77;;;11.10;99.90;;;;;;5052506;28;20197;-83
2023/10/19 03:38:08;;;;;;;5.17;3.57;;;11.10;99.90;;;;;;5052485;28;20174;-83
2023/10/19 03:40:38;;;;;;;4.33;3.87;;;11.10;99.90;;;;;;5035027;28;20165;-83
2023/10/19 03:43:16;;;;;;;4.07;3.60;;;11.10;99.90;;;;;;5052148;28;20744;-83
2023/10/19 03:45:47;;;;;;;4.43;3.90;;;11.10;99.90;;;;;;5034645;28;20236;-84
2023/10/19 03:48:13;;;;;;;3.90;3.50;;;11.00;99.90;;;;;;5034812;28;20170;-83
2023/10/19 03:50:38;;;;;;;5.20;3.50;;;11.00;99.90;;;;;;5052651;28;20166;-83
2023/10/19 03:53:07;;;;;;;4.23;3.83;;;11.00;99.90;;;;;;5052079;28;20166;-83
2023/10/19 03:55:38;;;;;;;3.90;3.50;;;11.00;99.90;;;;;;5052564;28;20213;-83
2023/10/19 03:58:04;;;;;;;4.43;3.63;;;11.00;99.90;;;;;;5052392;28;20628;-83
2023/10/19 04:00:33;;;;;;;4.00;3.60;;;11.00;99.90;;;;;;5034536;28;20208;-83
2023/10/19 04:02:58;;;;;;;4.07;3.67;;;11.00;99.90;;;;;;5034464;28;20227;-83
2023/10/19 04:05:26;;;;;;;4.00;3.60;;;11.00;99.90;;;;;;5051933;28;20210;-83
2023/10/19 04:07:55;;;;;;;4.27;3.80;;;11.00;99.90;;;;;;5052285;28;20169;-83
2023/10/19 04:10:30;;;;;;;4.50;4.10;;;11.00;99.90;;;;;;5035913;28;20636;-83
2023/10/19 04:12:59;;;;;;;5.23;4.23;;;11.00;99.90;;;;;;5056159;28;20160;-83
2023/10/19 04:15:26;;;;;;;5.00;4.10;;;11.10;99.90;;;;;;5056070;28;20212;-83
2023/10/19 04:17:58;;;;;;;4.60;4.20;;;11.00;99.90;;;;;;5038504;28;20555;-83
2023/10/19 04:20:35;;;;;;;4.40;4.00;;;11.00;99.90;;;;;;5038265;28;20170;-83
2023/10/19 04:23:10;;;;;;;4.60;4.13;;;11.00;99.90;;;;;;5055877;28;20150;-84
2023/10/19 04:25:35;;;;;;;5.47;4.50;;;11.00;99.90;;;;;;5055898;28;20695;-83
2023/10/19 04:28:01;;;;;;;5.87;4.63;;;11.00;99.90;;;;;;5038322;28;20170;-83
2023/10/19 04:30:27;;;;;;;4.80;4.40;;;11.00;99.90;;;;;;5055660;28;20216;-83
2023/10/19 04:32:53;;;;;;;5.37;4.80;;;11.00;99.90;;;;;;5055675;28;20170;-83
2023/10/19 04:35:22;;;;;;;5.23;4.40;;;11.00;99.90;;;;;;5055779;28;20174;-83
2023/10/19 04:37:52;;;;;;;5.97;5.10;;;11.00;99.90;;;;;;5038159;28;20185;-83
2023/10/19 04:40:22;;;;;;;5.13;4.63;;;11.00;99.90;;;;;;5037734;28;20173;-83
2023/10/19 04:42:50;;;;;;;6.57;4.83;;;11.00;99.90;;;;;;5037115;28;20177;-83
2023/10/19 04:45:16;;;;;;;6.20;5.40;;;11.00;99.90;;;;;;5055437;28;20265;-82
2023/10/19 04:47:42;;;;;;;6.40;5.20;;;11.00;99.90;;;;;;5035378;28;20265;-82
2023/10/19 04:50:10;;;;;;;5.67;5.07;;;11.10;99.90;;;;;;5040264;28;20182;-82
2023/10/19 04:52:36;;;;;;;6.60;5.70;;;11.10;99.90;;;;;;5034682;28;20158;-82
2023/10/19 04:55:02;;;;;;;7.50;6.00;;;11.20;99.90;;;;;;5046225;28;20261;-81
2023/10/19 04:57:28;;;;;;;6.53;5.93;;;11.20;99.90;;;;;;5054393;28;20172;-82
2023/10/19 04:59:53;;;;;;;7.57;6.37;;;11.20;99.90;;;;;;5055171;28;20200;-81
2023/10/19 05:02:19;;;;;;;8.17;6.53;;;11.20;99.90;;;;;;5054731;28;20185;-82
2023/10/19 05:04:47;;;;;;;7.30;6.33;;;11.10;99.90;;;;;;5036808;28;20201;-83
2023/10/19 05:07:16;;;;;;;7.07;6.37;;;11.10;99.90;;;;;;5055095;28;20210;-83
2023/10/19 05:09:42;;;;;;;7.60;6.17;;;11.10;99.90;;;;;;5055202;28;20261;-82
2023/10/19 05:12:09;;;;;;;7.63;6.67;;;11.10;99.90;;;;;;5034702;28;20214;-82
2023/10/19 05:14:39;;;;;;;7.60;6.80;;;11.10;99.90;;;;;;5035097;28;20257;-81
2023/10/19 05:17:05;;;;;;;8.37;7.10;;;11.10;99.90;;;;;;5017063;28;20209;-82
2023/10/19 05:19:35;;;;;;;9.07;7.13;;;11.10;99.90;;;;;;5034757;28;20174;-82
2023/10/19 05:22:01;;;;;;;8.37;7.40;;;11.10;99.90;;;;;;5034112;28;20228;-82
2023/10/19 05:24:27;;;;;;;9.57;7.30;;;11.10;99.90;;;;;;5033096;28;20185;-81
2023/10/19 05:26:53;;;;;;;9.43;7.47;;;11.20;99.90;;;;;;5033255;28;20225;-82
2023/10/19 05:29:20;;;;;;;10.73;8.37;;;11.20;99.90;;;;;;5034710;28;20189;-82
2023/10/19 05:31:46;;;;;;;10.13;8.13;;;11.30;99.90;;;;;;5034238;28;20183;-82
2023/10/19 05:34:11;;;;;;;11.10;8.80;;;11.30;99.90;;;;;;5034292;28;20177;-82
2023/10/19 05:36:37;;;;;;;12.33;8.83;;;11.30;99.90;;;;;;5034742;28;20194;-82
2023/10/19 05:39:07;;;;;;;12.40;8.87;;;11.40;99.90;;;;;;5016879;28;20175;-82
2023/10/19 05:41:34;;;;;;;14.37;8.40;;;11.40;99.90;;;;;;5016507;28;20169;-82
2023/10/19 05:43:59;;;;;;;10.80;8.60;;;11.40;99.90;;;;;;5034457;28;20213;-82
2023/10/19 05:46:25;;;;;;;11.37;8.53;;;11.40;99.90;;;;;;5034233;28;20238;-81
2023/10/19 05:48:53;;;;;;;11.90;8.63;;;11.40;99.90;;;;;;5034566;28;20178;-81
2023/10/19 05:51:19;;;;;;;10.77;8.60;;;11.50;99.90;;;;;;5033960;28;20255;-81
2023/10/19 05:53:45;;;;;;;11.07;8.50;;;11.40;99.90;;;;;;5016437;28;20655;-81
2023/10/19 05:56:11;;;;;;;10.33;8.27;;;11.50;99.90;;;;;;5034455;28;20224;-82
2023/10/19 05:58:36;;;;;;;10.87;8.97;;;11.40;99.90;;;;;;5016348;28;20239;-81
2023/10/19 06:01:02;;;;;;;12.07;8.70;;;11.50;99.90;;;;;;5033631;28;20174;-80
2023/10/19 06:03:28;;;;;;;12.40;8.80;;;11.50;99.90;;;;;;5016181;28;20240;-83
2023/10/19 06:05:56;;;;;;;13.43;9.70;;;11.60;99.90;;;;;;5033415;28;20225;-83
2023/10/19 06:08:22;;;;;;;11.83;9.03;;;11.60;99.90;;;;;;5016179;28;20170;-84
2023/10/19 06:10:54;;;;;;;12.60;9.00;;;11.60;99.90;;;;;;5033941;28;20208;-85
2023/10/19 06:13:21;;;;;;;14.93;9.67;;;11.60;99.90;;;;;;5032133;28;20271;-84
2023/10/19 06:15:48;;;;;;;13.23;9.27;;;11.60;99.90;;;;;;5033672;28;20196;-84
2023/10/19 06:18:13;;;;;;;12.63;9.23;;;11.60;99.90;;;;;;5032284;28;20178;-82
2023/10/19 06:20:44;;;;;;;11.13;8.80;;;11.60;99.90;;;;;;5033318;28;20193;-82
2023/10/19 06:23:11;;;;;;;12.37;9.30;;;11.60;99.90;;;;;;5033070;28;20174;-83
2023/10/19 06:25:37;;;;;;;14.80;8.80;;;11.60;99.90;;;;;;5033209;28;20205;-83
2023/10/19 06:28:03;;;;;;;13.00;9.20;;;11.70;99.90;;;;;;5032311;28;20236;-81
2023/10/19 06:30:29;;;;;;;13.07;8.93;;;11.70;99.90;;;;;;5033565;28;20182;-81
2023/10/19 06:32:59;;;;;;;11.93;9.40;;;11.70;99.90;;;;;;5014462;28;20261;-81
2023/10/19 06:35:25;;;;;;;13.93;9.10;;;11.80;99.90;;;;;;5052025;28;20205;-81
2023/10/19 06:37:52;;;;;;;13.40;9.10;;;11.80;99.90;;;;;;5035658;28;20178;-81
2023/10/19 06:40:18;;;;;;;11.03;8.50;;;11.80;99.90;;;;;;5035142;28;20607;-81
2023/10/19 06:42:47;;;;;;;12.47;8.73;;;11.80;99.90;;;;;;5033121;28;20214;-81
2023/10/19 06:45:13;;;;;;;12.53;8.80;;;11.90;99.90;;;;;;5034759;28;20213;-82
2023/10/19 06:47:44;;;;;;;10.93;8.70;;;11.90;99.90;;;;;;5052756;28;20215;-82
2023/10/19 06:50:11;;;;;;;12.87;8.97;;;12.00;99.90;;;;;;5034718;28;20284;-82
2023/10/19 06:52:40;;;;;;;10.67;8.50;;;12.00;99.90;;;;;;5052152;28;20170;-81
2023/10/19 06:55:13;;;;;;;10.37;8.40;;;12.00;99.90;;;;;;5034342;28;20169;-82
2023/10/19 06:57:45;;;;;;;11.40;8.53;;;12.10;99.90;;;;;;5052774;28;20184;-82
2023/10/19 07:00:14;;;;;;;11.03;7.47;;;12.10;99.90;;;;;;5052662;28;20196;-81
2023/10/19 07:02:43;;;;;;;10.33;8.17;;;12.10;99.90;;;;;;5051895;28;20311;-82
2023/10/19 07:05:13;;;;;;;10.40;7.87;;;12.10;99.90;;;;;;5052063;28;20280;-82
2023/10/19 07:07:40;;;;;;;8.43;7.10;;;12.10;99.90;;;;;;5052850;28;20264;-83
2023/10/19 07:10:08;;;;;;;8.47;7.00;;;12.20;99.90;;;;;;5052781;28;20184;-82
2023/10/19 07:12:34;;;;;;;8.77;7.03;;;12.20;99.90;;;;;;5052135;28;20173;-82
2023/10/19 07:15:00;;;;;;;9.60;7.40;;;12.20;99.90;;;;;;5034471;28;20209;-82
2023/10/19 07:17:27;;;;;;;9.57;7.10;;;12.20;99.90;;;;;;5034414;28;20646;-82
2023/10/19 07:19:53;;;;;;;8.43;6.93;;;12.30;99.90;;;;;;5052346;28;20180;-81
2023/10/19 07:22:22;;;;;;;9.53;7.03;;;12.30;99.90;;;;;;5051488;28;20642;-82
2023/10/19 07:24:48;;;;;;;10.30;7.33;;;12.30;99.90;;;;;;5052387;28;20255;-82
2023/10/19 07:27:18;;;;;;;8.67;6.93;;;12.40;99.90;;;;;;5034369;28;20665;-81
2023/10/19 07:29:47;;;;;;;9.57;7.10;;;12.40;99.90;;;;;;5051992;28;20179;-82
2023/10/19 07:32:13;;;;;;;9.17;7.10;;;12.40;99.90;;;;;;5051564;28;20170;-82
2023/10/19 07:34:39;;;;;;;9.77;6.97;;;12.50;99.90;;;;;;5034040;28;20180;-82
2023/10/19 07:37:07;;;;;;;8.93;6.60;;;12.50;99.90;;;;;;5051836;28;20194;-82
2023/10/19 07:39:33;;;;;;;7.93;6.60;;;12.60;99.90;;;;;;5034243;28;20257;-82
2023/10/19 07:41:59;;;;;;;9.07;6.67;;;12.60;99.90;;;;;;5051551;28;20169;-81
2023/10/19 07:44:25;;;;;;;10.33;7.00;;;12.60;99.90;;;;;;5053781;28;20183;-81
2023/10/19 07:46:51;;;;;;;8.47;6.67;;;12.70;99.90;;;;;;5038027;28;20189;-82
2023/10/19 07:49:17;;;;;;;9.17;6.90;;;12.70;99.90;;;;;;5056057;28;20247;-82
2023/10/19 07:51:47;;;;;;;8.93;6.87;;;12.70;99.90;;;;;;5055390;28;20199;-82
2023/10/19 07:54:13;;;;;;;8.10;6.47;;;12.80;99.90;;;;;;5056184;28;20181;-82
2023/10/19 07:56:39;;;;;;;9.40;6.40;;;12.80;99.90;;;;;;5037853;28;20575;-82
2023/10/19 07:59:05;;;;;;;8.67;6.20;;;12.90;99.90;;;;;;5055739;28;20216;-82
2023/10/19 08:01:31;;;;;;;8.03;5.83;;;13.00;99.90;;;;;;5037088;28;20184;-82
2023/10/19 08:03:57;;;;;;;6.83;5.70;;;13.00;99.90;;;;;;5055507;28;20162;-82
2023/10/19 08:06:22;;;;;;;8.10;5.60;;;13.10;99.90;;;;;;5037520;28;20220;-83
2023/10/19 08:08:48;;;;;;;7.73;5.73;;;13.10;99.90;;;;;;5037822;28;20174;-82
2023/10/19 08:11:13;;;;;;;6.27;5.10;;;13.20;99.90;;;;;;5055101;28;20648;-82
2023/10/19 08:13:39;;;;;;;7.13;5.23;;;13.20;99.90;;;;;;5055578;28;20193;-82
2023/10/19 08:16:07;;;;;;;7.60;5.43;;;13.30;99.90;;;;;;5037477;28;20190;-82
2023/10/19 08:18:35;;;;;;;6.10;5.23;;;13.30;99.90;;;;;;5055276;28;20174;-82
2023/10/19 08:21:01;;;;;;;7.47;5.57;;;13.50;99.90;;;;;;5037040;28;20205;-80
2023/10/19 08:23:27;;;;;;;6.43;5.07;;;13.60;99.90;;;;;;5055178;28;20182;-82
2023/10/19 08:25:53;;;;;;;7.47;5.20;;;13.70;99.90;;;;;;5055053;28;20205;-81
2023/10/19 08:28:20;;;;;;;6.83;4.70;;;13.90;99.90;;;;;;5037409;28;20642;-82
2023/10/19 08:30:56;;;;;;;6.73;4.90;;;14.20;99.90;;;;;;5053889;28;20175;-82
2023/10/19 08:33:23;;;;;;;6.57;4.67;;;14.50;99.90;;;;;;5055248;28;20145;-81
2023/10/19 08:35:49;;;;;;;5.77;4.43;;;14.70;99.90;;;;;;5037368;28;20202;-81
2023/10/19 08:38:14;;;;;;;5.10;4.27;;;14.70;99.90;;;;;;5037929;28;20181;-82
2023/10/19 08:40:40;;;;;;;7.83;4.60;;;14.70;99.90;;;;;;5037760;28;20185;-81
2023/10/19 08:43:07;;;;;;;5.10;4.37;;;14.70;99.90;;;;;;5055320;28;20621;-81
2023/10/19 08:45:34;;;;;;;7.10;4.20;;;14.60;99.90;;;;;;5037617;28;20205;-81
2023/10/19 08:48:01;;;;;;;5.30;4.30;;;14.60;99.90;;;;;;5055467;28;20178;-82
2023/10/19 08:50:29;;;;;;;6.73;4.60;;;14.70;99.90;;;;;;5037745;28;20265;-81
2023/10/19 08:52:57;;;;;;;6.70;4.70;;;14.80;99.90;;;;;;5036587;28;20174;-81
2023/10/19 08:55:23;;;;;;;6.13;4.30;;;14.90;99.90;;;;;;5053706;28;20744;-81
2023/10/19 08:57:49;;;;;;;7.67;4.20;;;15.10;99.90;;;;;;5055588;28;20208;-81
2023/10/19 09:00:19;;;;;;;6.47;4.33;;;15.10;99.90;;;;;;5055302;28;20174;-82
2023/10/19 09:02:45;;;;;;;6.83;4.13;;;15.00;99.90;;;;;;5054685;28;20182;-81
2023/10/19 09:05:25;;;;;;;6.37;4.87;;;14.90;99.90;;;;;;5036801;28;20201;-82
2023/10/19 09:07:54;;;;;;;7.10;4.33;;;14.80;99.90;;;;;;5054748;28;20166;-82
2023/10/19 09:10:28;;;;;;;6.77;4.90;;;14.70;99.90;;;;;;5037186;28;20243;-81
2023/10/19 09:13:01;;;;;;;6.37;4.30;;;14.70;99.90;;;;;;5053966;28;20264;-82
2023/10/19 09:15:30;;;;;;;6.10;4.17;;;14.70;99.90;;;;;;5036622;28;20189;-81
2023/10/19 09:17:55;;;;;;;5.73;4.40;;;14.70;99.90;;;;;;5054808;28;20261;-82
2023/10/19 09:20:27;;;;;;;4.53;3.87;;;14.70;99.90;;;;;;5037027;28;20258;-80
2023/10/19 09:22:54;;;;;;;5.07;3.73;;;14.70;99.90;;;;;;5036729;28;20166;-82
2023/10/19 09:25:20;;;;;;;5.20;4.20;;;14.90;99.90;;;;;;5037152;28;20280;-82
2023/10/19 09:27:46;;;;;;;4.30;3.50;;;15.00;99.90;;;;;;5055337;28;20169;-82
2023/10/19 09:30:18;;;;;;;6.60;3.90;;;15.00;99.90;;;;;;5055555;28;20587;-82
2023/10/19 09:32:46;;;;;;;5.97;4.07;;;15.00;99.90;;;;;;5036931;28;20166;-82
2023/10/19 09:35:15;;;;;;;5.73;4.20;;;14.90;99.90;;;;;;5055616;28;20173;-81
2023/10/19 09:37:41;;;;;;;5.93;4.23;;;14.90;99.90;;;;;;5036811;28;20181;-81
2023/10/19 09:40:12;;;;;;;4.40;3.93;;;14.90;99.90;;;;;;5054139;28;20290;-81
2023/10/19 09:42:48;;;;;;;5.43;4.03;;;15.00;99.90;;;;;;5035862;28;20205;-81
2023/10/19 09:45:19;;;;;;;6.07;4.40;;;15.00;99.90;;;;;;5054368;28;20200;-81
2023/10/19 09:47:50;;;;;;;5.50;4.43;;;15.10;99.90;;;;;;5052794;28;20181;-81
2023/10/19 09:50:16;;;;;;;5.70;4.20;;;15.20;99.90;;;;;;5052879;28;20197;-82
2023/10/19 09:52:42;;;;;;;5.60;3.77;;;15.30;99.90;;;;;;5053545;28;20278;-82
2023/10/19 09:55:23;;;;;;;4.80;3.90;;;15.30;99.90;;;;;;5053130;28;20178;-83
2023/10/19 09:57:59;;;;;;;7.30;4.50;;;15.30;99.90;;;;;;5054210;28;20166;-83
2023/10/19 10:00:25;;;;;;;5.50;3.90;;;15.40;99.90;;;;;;5054215;28;20634;-82
2023/10/19 10:02:55;;;;;;;4.63;3.70;;;15.40;99.90;;;;;;5053581;28;20204;-83
2023/10/19 10:05:42;;;;;;;6.50;3.93;;;15.50;99.90;;;;;;5053944;28;20209;-82
2023/10/19 10:08:17;;;;;;;5.13;3.80;;;15.80;99.90;;;;;;5052356;28;20258;-81
2023/10/19 10:10:47;;;;;;;4.20;3.50;;;16.30;99.90;;;;;;5054039;28;20199;-81
2023/10/19 10:13:28;;;;;;;5.47;3.10;;;16.50;99.90;;;;;;5053598;28;20181;-83
2023/10/19 10:15:55;;;;;;;3.67;3.03;;;16.50;99.90;;;;;;5052272;28;20197;-81
2023/10/19 10:18:23;;;;;;;5.87;3.50;;;16.50;99.90;;;;;;5052869;28;20174;-81
2023/10/19 10:21:10;;;;;;;3.50;3.20;;;16.50;99.90;;;;;;5053634;28;20174;-84
2023/10/19 10:23:44;;;;;;;4.93;3.53;;;16.60;99.90;;;;;;5054419;28;20240;-84
2023/10/19 10:26:12;;;;;;;4.97;3.60;;;16.50;99.90;;;;;;5053838;28;20212;-83
2023/10/19 10:28:38;;;;;;;4.83;3.50;;;16.40;99.90;;;;;;5052446;28;20180;-84
2023/10/19 10:31:22;;;;;;;5.63;3.80;;;16.30;99.90;;;;;;5052149;28;20170;-83
2023/10/19 10:33:54;;;;;;;8.50;4.53;;;16.30;99.90;;;;;;5051592;28;20658;-81
2023/10/19 10:36:20;;;;;;;4.97;4.17;;;16.30;99.90;;;;;;5053643;28;20200;-82
2023/10/19 10:38:48;;;;;;;8.30;4.63;;;16.30;99.90;;;;;;5053809;28;20170;-81
2023/10/19 10:41:27;;;;;;;5.00;3.80;;;16.20;99.90;;;;;;5052736;28;20590;-82
2023/10/19 10:43:55;;;;;;;4.77;3.80;;;16.10;99.90;;;;;;5035232;28;20169;-83
2023/10/19 10:46:28;;;;;;;4.77;4.20;;;15.90;99.90;;;;;;5035576;28;20236;-83
2023/10/19 10:48:55;;;;;;;5.83;4.30;;;15.90;99.90;;;;;;5053316;28;20170;-83
2023/10/19 10:51:28;;;;;;;6.93;4.43;;;16.00;99.90;;;;;;5034926;28;20208;-83
2023/10/19 10:53:54;;;;;;;5.70;4.37;;;16.10;99.90;;;;;;5035470;28;20204;-82
2023/10/19 10:56:22;;;;;;;6.30;4.70;;;16.10;99.90;;;;;;5052969;28;20689;-83
2023/10/19 10:58:48;;;;;;;6.43;4.30;;;16.30;99.90;;;;;;5052665;28;20180;-83
2023/10/19 11:01:14;;;;;;;6.20;4.20;;;16.50;99.90;;;;;;5034570;28;20178;-82
2023/10/19 11:03:41;;;;;;;7.23;4.77;;;16.70;99.90;;;;;;5052811;28;20170;-83
2023/10/19 11:06:08;;;;;;;6.90;4.27;;;17.00;99.90;;;;;;5052546;28;20209;-83
2023/10/19 11:08:35;;;;;;;6.17;4.17;;;17.10;99.90;;;;;;5052734;28;20177;-83
2023/10/19 11:11:12;;;;;;;6.73;4.80;;;17.20;99.90;;;;;;5033869;28;20238;-80
2023/10/19 11:13:39;;;;;;;5.93;4.23;;;17.30;99.90;;;;;;5052966;28;20176;-83
2023/10/19 11:16:07;;;;;;;5.27;4.07;;;17.10;99.90;;;;;;5034688;28;20246;-83
2023/10/19 11:18:37;;;;;;;5.23;4.17;;;17.00;99.90;;;;;;5052273;28;20185;-83
2023/10/19 11:21:06;;;;;;;6.90;4.50;;;17.10;99.90;;;;;;5052001;28;20702;-82
2023/10/19 11:23:47;;;;;;;5.40;4.00;;;17.30;99.90;;;;;;5052674;28;20263;-83
2023/10/19 11:26:15;;;;;;;6.17;3.60;;;17.50;99.90;;;;;;5034877;28;20258;-83
2023/10/19 11:28:50;;;;;;;4.00;3.40;;;17.80;99.90;;;;;;5052722;28;20177;-83
2023/10/19 11:31:19;;;;;;;5.53;3.20;;;17.90;99.90;;;;;;5052391;28;20161;-83
2023/10/19 11:33:48;;;;;;;5.00;3.00;;;18.10;99.90;;;;;;5052726;28;20252;-83
2023/10/19 11:36:14;;;;;;;6.20;3.00;;;17.90;99.90;;;;;;5052804;28;20208;-83
2023/10/19 11:38:45;;;;;;;6.33;3.53;;;18.00;39.30;;;;;;5052838;28;20218;-83
2023/10/19 11:41:15;;;;;;;4.43;3.30;;;18.20;77.10;;;;;;5034383;28;20192;-83
2023/10/19 11:43:42;;;;;;;3.50;2.80;;;18.10;81.00;;;;;;5052222;28;20331;-83
2023/10/19 11:46:09;;;;;;;4.73;3.23;;;18.20;99.90;;;;;;5034494;28;20216;-83
2023/10/19 11:48:35;;;;;;;4.27;3.10;;;18.20;23.00;;;;;;5034735;28;20526;-83
2023/10/19 11:51:05;;;;;;;4.57;2.90;;;18.20;1.00;;;;;;5052091;28;20166;-80
2023/10/19 11:53:33;;;;;;;5.53;3.50;;;18.30;1.00;;;;;;5034480;28;20181;-82
2023/10/19 11:56:03;;;;;;;4.60;3.50;;;18.10;59.20;;;;;;5052557;28;20270;-82
2023/10/19 11:58:30;;;;;;;4.60;2.90;;;18.00;67.30;;;;;;5052663;28;20219;-82
2023/10/19 12:00:55;;;;;;;4.90;3.10;;;18.00;90.70;;;;;;5034525;28;20178;-82
2023/10/19 12:03:21;;;;;;;5.00;2.90;;;18.00;99.90;;;;;;5034147;28;20178;-82
2023/10/19 12:05:47;;;;;;;4.37;2.90;;;18.00;69.40;;;;;;5025384;28;20202;-82
2023/10/19 12:08:12;;;;;;;3.13;2.40;;;18.00;99.90;;;;;;5014484;28;20289;-82
2023/10/19 12:10:38;;;;;;;3.80;2.60;;;17.80;91.20;;;;;;5032496;28;20174;-81
2023/10/19 12:13:08;;;;;;;3.20;2.67;;;17.50;99.90;;;;;;5014258;28;20528;-82
2023/10/19 12:15:33;;;;;;;4.57;2.77;;;17.40;99.90;;;;;;5032310;28;20582;-83
2023/10/19 12:17:59;;;;;;;3.30;3.00;;;17.30;99.90;;;;;;5032434;28;20253;-82
2023/10/19 12:20:26;;;;;;;4.77;3.07;;;17.30;99.90;;;;;;5032631;28;20245;-81
2023/10/19 12:22:53;;;;;;;4.40;3.30;;;17.30;99.90;;;;;;5031810;28;20166;-81
2023/10/19 12:25:31;;;;;;;4.03;2.90;;;17.10;99.90;;;;;;5032505;28;20202;-81
2023/10/19 12:28:00;;;;;;;5.13;3.17;;;17.00;99.90;;;;;;5032473;28;20165;-82
2023/10/19 12:30:31;;;;;;;3.87;2.87;;;17.00;99.90;;;;;;5032585;28;20174;-82
2023/10/19 12:32:59;;;;;;;5.97;3.40;;;16.80;99.90;;;;;;5035696;28;20182;-82
2023/10/19 12:35:30;;;;;;;5.00;3.37;;;16.80;99.90;;;;;;5034264;28;20198;-82
2023/10/19 12:37:55;;;;;;;4.80;3.20;;;16.80;99.90;;;;;;5036002;28;20178;-82
2023/10/19 12:40:28;;;;;;;5.07;3.63;;;16.70;99.90;;;;;;5018170;28;20231;-81
2023/10/19 12:42:54;;;;;;;5.83;3.40;;;16.50;99.90;;;;;;5017328;28;20175;-82
2023/10/19 12:45:26;;;;;;;4.50;3.43;;;16.30;99.90;;;;;;5034494;28;20335;-81
2023/10/19 12:47:51;;;;;;;3.43;3.13;;;16.30;99.90;;;;;;5017790;28;20174;-82
2023/10/19 12:50:24;;;;;;;4.90;3.60;;;16.20;99.90;;;;;;5035737;28;20175;-82
2023/10/19 12:52:50;;;;;;;5.93;3.80;;;16.10;99.90;;;;;;5035252;28;20553;-83
2023/10/19 12:55:17;;;;;;;4.03;3.70;;;16.10;99.90;;;;;;5035767;28;20182;-84
2023/10/19 12:57:43;;;;;;;4.60;3.97;;;16.00;99.90;;;;;;5035562;28;20556;-83
2023/10/19 13:00:25;;;;;;;5.37;3.83;;;15.90;99.90;;;;;;5018158;28;20174;-82
2023/10/19 13:02:59;;;;;;;6.47;3.80;;;15.90;99.90;;;;;;5035370;28;20166;-82
2023/10/19 13:07:58;;;;;;;6.00;3.83;;;15.90;99.90;;;;;;5127836;22;20385;-82
2023/10/19 13:10:28;;;;;;;6.47;3.80;;;15.90;99.90;;;;;;5056506;28;20302;-82
2023/10/19 13:12:53;;;;;;;6.87;4.17;;;15.80;99.90;;;;;;5056151;28;20254;-80
2023/10/19 13:15:20;;;;;;;4.67;4.13;;;15.70;99.90;;;;;;5074214;28;20165;-82